Aquone, North Carolina
Current Conditions -  °F | °C
As of 7:35 PM on Saturday 22 Nov 2014 (Local Time) from KRHP Reporting Station
Scattered Clouds Scattered Clouds  
Wind Chill: 43°   Ceiling: Unl
Heat Index: 43°   Visibility: 10mi
Dew Point: 35°   Wind: 0mph
Humidity: 72%   Direction: NA
Pressure: 30.27"   Gusts: NA
Location:  35.2235°N, 83.6438°W
Report Text: KRHP 230035Z AUTO 00000KT 10SM SCT045 06/01 A3027 RMK AO2 T00620014
Loading
Personal Weather Stations






























Interactive Weather Map New forecast layout! Learn more

10-Day Weather Forecast

Advertisements
Track Severe Weather on mobile